Share

Falcon, MS (38628)

12:47 AM CDT on April 25, 2014 (GMT -0500)
Tunica (KUTA) Elev 194 ft | 34.68 °N, 90.35 °W | Change Station

Current weather conditions updated 12 minutes ago

Clear
Clear
61 °F
Feels Like 61 °F
N
10
Wind Variable Wind from West
Sunrise 6:17 AM
Sunset 7:40 PM
Moon Waning Crescent

Today is forecast to be Cooler than yesterday.

Pressure 29.81 in
Visibility 10.0 miles
Clouds Clear
Dew Point 55 °F
Humidity 82%
Rainfall 0.00 in
Snow Depth Not available.
UV 0 out of 16
Pollen 8.40 out of 12
Air Quality Not available.
Flu Activity No Activity
METAR KUTA 250535Z AUTO 26009KT 10SM CLR 16/13 A2981 RMK AO2

More Conditions Fewer Conditions

Pressure 29.81 in
Visibility 10.0 miles
Clouds Clear
Dew Point 55 °F
Humidity 82%
Rainfall 0.00 in
Snow Depth Not available.
UV 0 out of 16
Pollen 8.40 out of 12
Air Quality Not available.
Flu Activity No Activity
METAR KUTA 250535Z AUTO 26009KT 10SM CLR 16/13 A2981 RMK AO2

More Conditions Fewer Conditions

10-Day Weather Forecast

Almanac

Astronomy

Apr. 25, 2014 Rise Set
Actual Time 6:17 AM CDT 7:40 PM CDT
Civil Twilight 5:51 AM CDT 8:07 PM CDT
Nautical Twilight 5:19 AM CDT 8:38 PM CDT
Astronomical Twilight 4:46 AM CDT 9:12 PM CDT
Moon 3:55 AM CDT 4:12 PM CDT
Length of Visible Light 14h 15m
Length of Day
13h 23m
Tomorrow will be 1m 55s longer.
Waning Crescent, 19% of the Moon is Illuminated
Today
Waning Crescent
Apr 29
New
May 6
First Quarter
May 14
Full
May 21
Last Quarter

Today's Extremes

State Highs State Lows

Community

  • Deer in evening light
    Deer in evening light
  • Critter
    Critter
  • Jone Runs Falls
    Jone Runs Falls
  • Easter in Shenandoah National Park
    Easter in Shenandoah National Park
  • Sunset at Apalachicola Bay, Florida
    Sunset at Apalachicola Bay, Florida

WunderPhotos

Upload Photos

1,704,861 photos uploaded!

WunderBlogs® & News

Nearby

Snow Depth

Station Depth Elevation
No new snow has been reported.

Coastal Water Temperatures

Place Temperature
No Stations Reporting

Earthquake Activity

City Distance Mag. Time & Date
Ridgely, Tennessee 133 miles 2.5 10:13 PM CDT
2014-04-19
Minimum magnitude displayed is 2.5.

Nearby Weather Stations

There are no personal weather stations in this area.

What do you think?

We're not finished. Please let us know what you like, what you don't like, and what you are still missing.